• Join FlightAware (Why Join?)
  • Login
  • US Flag 
12:53AM EDT


 

Airport Tracker/Info


-or-


 

Live Flight TrackerFlight Track Log ✈ AWE3434 ✈ 15-Apr-2013 ✈ KPHL - KCMH

Flight Track Log - Related Links

Times and Time Zones

All times are in EDT time to prevent confusion due to time zone crossing. See the AWE3434 flight status page for this flight to view local times or setup timezone preferences in your user account.

Time Position Orientation Groundspeed Altitude Reporting Facility
EDT Latitude Longitude Course Direction KTS MPH feet Rate Location/Type
02:11PM 39.8764 -75.2178 270° West 137 158 1,000  Level FAA TRACON SMA TRACON (SMA)
02:12PM 39.8825 -75.1992 67° East 148 170 1,700 1,620 Climbing FAA TRACON SMA TRACON (SMA)
02:12PM 39.8878 -75.1814 69° East 160 184 2,100 1,500 Climbing FAA TRACON SMA TRACON (SMA)
02:12PM 39.8953 -75.1592 66° East 216 249 2,700 2,460 Climbing FAA TRACON SMA TRACON (SMA)
02:13PM 39.9033 -75.1328 68° East 220 253 3,800 3,000 Climbing FAA TRACON SMA TRACON (SMA)
02:13PM 39.9139 -75.1094 59° Northeast 244 281 4,700 2,760 Climbing FAA TRACON SMA TRACON (SMA)
02:13PM 39.9325 -75.0986 24° Northeast 244 281 5,600 2,880 Climbing FAA TRACON SMA TRACON (SMA)
02:14PM 39.9000 -75.8309 270° West  Level FlightAware Approximate
02:14PM 39.9578 -75.1019 354° North 242 278 6,700  Level FAA TRACON SMA TRACON (SMA)
02:14PM 39.9800 -75.1108 343° North 285 328 7,100 1,800 Climbing FAA TRACON SMA TRACON (SMA)
02:14PM 39.9947 -75.1331 311° West 273 314 7,900 3,060 Climbing FAA TRACON SMA TRACON (SMA)
02:15PM 39.9000 -75.9850 270° West  Level FlightAware Approximate
02:15PM 39.9969 -75.1706 274° West 275 316 9,100  Level FAA TRACON SMA TRACON (SMA)
02:15PM 39.9922 -75.2019 259° West 280 322 9,900 1,440 Climbing FAA TRACON SMA TRACON (SMA)
02:15PM 39.9872 -75.2333 258° West 292 336 10,100 720 Climbing FAA TRACON SMA TRACON (SMA)
02:16PM 39.9000 -76.1391 270° West  Level FlightAware Approximate
02:16PM 39.9803 -75.2744 258° West 300 345 10,400  Level FAA TRACON SMA TRACON (SMA)
02:16PM 39.9747 -75.3089 258° West 312 359 10,900 1,560 Climbing FAA TRACON SMA TRACON (SMA)
02:16PM 39.9697 -75.3444 260° West 318 366 11,500 1,620 Climbing FAA TRACON SMA TRACON (SMA)
02:17PM 39.9628 -75.3869 258° West 318 366 12,000 900 Climbing FAA TRACON SMA TRACON (SMA)
02:17PM 39.9569 -75.4228 258° West 322 371 12,100 120 Climbing FAA TRACON SMA TRACON (SMA)
02:17PM 39.9517 -75.4581 259° West 323 372 12,100 -180 Level FAA TRACON SMA TRACON (SMA)
02:18PM 39.9450 -75.5011 259° West 323 372 12,000  Descending FAA TRACON SMA TRACON (SMA)
02:18PM 39.9389 -75.5372 258° West 325 374 12,100 420 Climbing FAA TRACON SMA TRACON (SMA)
02:18PM 39.9319 -75.5817 258° West 325 374 12,300 1,860 Climbing FAA TRACON SMA TRACON (SMA)
02:19PM 39.9261 -75.6175 258° West 328 377 13,400 3,000 Climbing FAA TRACON SMA TRACON (SMA)
02:19PM 39.9208 -75.6533 259° West 328 377 14,300 2,820 Climbing FAA TRACON SMA TRACON (SMA)
02:19PM 39.9175 -75.6989 265° West 335 386 15,300 2,820 Climbing FAA TRACON SMA TRACON (SMA)
02:20PM 39.9167 -75.7358 268° West 333 383 16,200 2,580 Climbing FAA TRACON SMA TRACON (SMA)
02:20PM 39.9164 -75.7728 269° West 328 377 17,000 2,220 Climbing FAA TRACON SMA TRACON (SMA)
02:20PM 39.9153 -75.8192 268° West 334 384 17,700 1,740 Climbing FAA TRACON SMA TRACON (SMA)
02:21PM 39.9150 -75.8378 269° West 334 384 18,200 1,920 Climbing FAA TRACON SMA TRACON (SMA)
02:23PM 39.9117 -76.1053 269° West 334 384 22,500 1,980 Climbing New York Center
02:24PM 39.9117 -76.2378 270° West 353 406 24,500 1,980 Climbing New York Center
02:25PM 39.9161 -76.3653 273° West 360 414 26,400 1,500 Climbing New York Center
02:26PM 39.9225 -76.4958 274° West 365 420 27,600 1,200 Climbing New York Center
02:27PM 39.9261 -76.6317 272° West 370 426 28,900 1,260 Climbing New York Center
02:28PM 39.9339 -76.7703 274° West 370 426 30,200 1,140 Climbing New York Center
02:29PM 39.9369 -76.9114 272° West 375 432 31,300 900 Climbing New York Center
02:30PM 39.9422 -77.0472 273° West 380 437 32,000 300 Climbing New York Center
02:31PM 39.9478 -77.1778 273° West 380 437 32,000  Level New York Center
02:32PM 39.9511 -77.3081 272° West 374 430 32,000  Level New York Center
02:34PM 39.9603 -77.5603 273° West 341 392 32,000 -120 Level Cleveland Center
02:35PM 39.9658 -77.6900 273° West 347 399 31,800 -720 Descending Cleveland Center
02:36PM 39.9689 -77.8172 272° West 347 399 30,600 -900 Descending Cleveland Center
02:37PM 39.9722 -77.9497 272° West 352 405 30,000 -300 Descending Cleveland Center
02:38PM 39.9750 -78.0797 272° West 357 411 30,000  Level Cleveland Center
02:39PM 39.9778 -78.2125 272° West 364 419 30,000  Level Cleveland Center
02:40PM 39.9806 -78.3425 272° West 364 419 30,000  Level Cleveland Center
02:41PM 39.9831 -78.4725 271° West 364 419 30,000  Level Cleveland Center
02:42PM 39.9875 -78.6050 273° West 364 419 30,000  Level Cleveland Center
02:43PM 39.9897 -78.7350 271° West 364 419 30,000  Level Cleveland Center
02:44PM 39.9917 -78.8650 271° West 364 419 30,000  Level Cleveland Center
02:45PM 39.9978 -78.9978 273° West 364 419 30,000  Level Cleveland Center
02:46PM 39.9994 -79.1278 271° West 364 419 30,000  Level Cleveland Center
02:47PM 40.0011 -79.2578 271° West 364 419 30,000  Level Cleveland Center
02:48PM 40.0047 -79.3906 272° West 364 419 30,000  Level Cleveland Center
02:49PM 40.0058 -79.5206 271° West 364 419 30,000  Level Cleveland Center
02:50PM 40.0092 -79.6533 272° West 364 419 30,000  Level Cleveland Center
02:51PM 40.0103 -79.7836 271° West 364 419 30,000  Level Cleveland Center
02:52PM 40.0131 -79.9000 272° West 364 419 30,000  Level Cleveland Center
02:53PM 40.0158 -80.0328 272° West 364 419 30,000 -60 Level Cleveland Center
02:54PM 40.0164 -80.1603 270° West 364 419 29,900 -720 Descending Cleveland Center
02:55PM 40.0167 -80.2958 270° West 364 419 28,600 -960 Descending Cleveland Center
02:56PM 40.0169 -80.4258 270° West 364 419 28,000 -300 Descending Cleveland Center
02:57PM 40.0192 -80.5586 271° West 364 419 28,000  Level Cleveland Center
02:58PM 40.0192 -80.6917 270° West 364 419 28,000  Level Cleveland Center
02:59PM 40.0169 -80.8244 269° West 364 419 28,000  Level Cleveland Center
03:00PM 39.9936 -80.9489 256° West 364 419 28,000 -660 Level Cleveland Center
03:01PM 39.9681 -81.0761 255° West 359 413 26,700 -1,560 Descending Cleveland Center
03:01PM 39.9550 -81.1336 254° West 359 413 25,900 -2,280 Descending Indianapolis Center
03:02PM 39.9317 -81.2567 256° West 351 404 23,600 -1,920 Descending Indianapolis Center
03:03PM 39.9083 -81.3742 256° West 338 389 22,000 -780 Descending Indianapolis Center
03:04PM 39.8856 -81.4897 256° West 327 376 22,000 -1,140 Level Indianapolis Center
03:05PM 39.8631 -81.6042 256° West 325 374 19,700 -2,520 Descending Indianapolis Center
03:06PM 39.8386 -81.7228 255° West 336 387 16,900 -2,700 Descending Indianapolis Center
03:07PM 39.8106 -81.8617 255° West 337 388 14,200 -2,100 Descending Indianapolis Center
03:08PM 39.7886 -81.9706 255° West 312 359 12,600 -1,560 Descending Indianapolis Center
03:09PM 39.7675 -82.0758 255° West 301 346 11,000 -1,560 Descending Indianapolis Center
03:10PM 39.7581 -82.1233 256° West 293 337 10,400 -1,020 Descending Indianapolis Center
03:10PM 39.7478 -82.1736 255° West 281 323 10,000 -420 Descending Indianapolis Center
03:11PM 39.7397 -82.2164 256° West 260 299 10,000  Level Indianapolis Center
03:11PM 39.7294 -82.2653 255° West 264 304 10,000  Level Indianapolis Center
03:12PM 39.7194 -82.3064 252° West 260 299 10,000  Level Indianapolis Center
03:12PM 39.7103 -82.3578 257° West 261 300 10,000  Level Indianapolis Center
03:13PM 39.7114 -82.4003 272° West 265 305 10,000 -120 Level Indianapolis Center
03:13PM 39.7453 -82.4336 323° Northwest 276 318 9,900 -900 Descending Indianapolis Center
03:14PM 39.7728 -82.4556 328° Northwest 280 322 9,100 -2,040 Descending Indianapolis Center
03:14PM 39.8106 -82.4897 325° Northwest 279 321 7,800 -2,280 Descending Indianapolis Center
03:15PM 39.8353 -82.5275 310° West 282 325 6,800 -1,800 Descending Indianapolis Center
03:15PM 39.8664 -82.5767 310° West 267 307 6,000 -1,200 Descending Indianapolis Center
03:16PM 39.8808 -82.5975 312° West 252 290 5,600 -1,500 Descending Indianapolis Center
03:16PM 39.9122 -82.6447 311° West 252 290 4,500 -1,380 Descending Indianapolis Center
03:17PM 39.9247 -82.6647 309° West 239 275 4,200 -1,260 Descending Indianapolis Center
03:17PM 39.9536 -82.7050 313° West 237 273 3,200 -1,140 Descending Indianapolis Center
03:18PM 39.9628 -82.7233 303° West 215 247 3,100 -540 Descending Indianapolis Center
03:18PM 39.9894 -82.7636 311° West 219 252 2,700 -540 Descending Indianapolis Center